Station info - map view · info · telemetry · weather · raw · status · beacons · messages · bulletins · browse · moving · my account
Callsign, ship name or locator: Clear       
It is possible to search using wildcards (*?) after a prefix. Example: OH*
APRS station SM7CAD-9 - show graphs
Map loading...
Mic-E message: Off duty
Location: 57°32.26' N 15°40.15' E - locator JO77UM09HA - show map - static map
6.6 miles Southeast bearing 145° from Mariannelund, Eksjö Kommun, Jönköping, Sweden [?]
7.3 miles Northwest bearing 298° from Hultsfred, Hultsfreds Kommun, Kalmar, Sweden
58.4 miles East bearing 106° from Jönköping, Jönköpings Kommun, Jönköping, Sweden
60.3 miles South bearing 178° from Linköping, Linköpings Kommun, Östergötland, Sweden
Last position: 2018-10-15 09:56:51 EDT (5d 10h21m ago)
2018-10-15 15:56:51 CEST local time at Mariannelund, Sweden [?]
Altitude: 692 ft
Course: 237°
Device: Yaesu: FTM-400DR (rig)
Last path: SM7CAD-9>UWSR26 via WIDE1-1,WIDE2-1,qAR,SM0RGQ-10 (good)
Positions stored: 5238
Packet rate: 227 seconds between packets on average during 3856 seconds.
Other SSIDs: SM7CAD-7
Stations near current position of SM7CAD-9 - show more
callsign distance last heard - EDT      callsign distance last heard - EDT
SM7CAD-70.0 yards 0°2018-10-19 08:29:56 DC7NEU-615.2 miles 159°2018-10-11 12:06:13
PS-SG7BNT16.4 miles 297°2018-10-20 19:00:09 SG7BNT16.4 miles 297°2018-10-20 20:11:00
SG7BNT-DP16.4 miles 297°2018-10-20 20:13:28 SG7BNT-R16.5 miles 297°2018-10-20 19:41:44
Stations which heard SM7CAD-9 directly on radio –
callsign pkts first heard - EDT last heard longest (tx => rx) longest at - EDT
SK7CA-1 3 2018-10-11 03:13:18 2018-10-11 04:32:03 JO87HS > JO86DQ 74.3 miles 188° 2018-10-11 04:32:03
SK3BR 11 2018-10-11 03:16:51 2018-10-11 07:05:35 JO77VM > JP81IE 256.4 miles 7° 2018-10-11 06:57:08
SK7HW-2 11 2018-10-11 03:14:51 2018-10-15 09:06:05 JO87HS > JO76GW 95.9 miles 234° 2018-10-11 04:41:52
SM3XLY-2 2 2018-10-11 03:14:43 2018-10-11 03:19:44 JO77UM > JP80GL 206.4 miles 8° 2018-10-11 03:19:44
SM6MJW-3 3 2018-10-11 03:18:26 2018-10-11 04:32:47 JO87HS > JO68VJ 111.2 miles 295° 2018-10-11 04:32:47
SK4BX-2 4 2018-10-11 03:16:46 2018-10-11 07:01:37 JO77WM > JO79PD 113.4 miles 349° 2018-10-11 06:10:56
SK2AT-2 2 2018-10-11 06:57:06 2018-10-11 07:04:20 JO77VM > JP93VU 457.1 miles 15° 2018-10-11 06:57:06
SK7BQ-2 1 2018-10-11 03:15:29 2018-10-11 03:15:29 JO77UM > JO76AA 121.9 miles 211° 2018-10-11 03:15:29
SM3XIK-1 1 2018-10-11 03:14:42 2018-10-11 03:14:42 JO77UM > JP80JG 193.8 miles 11° 2018-10-11 03:14:42
SK5UM-2 8 2018-10-11 04:11:09 2018-10-11 05:29:33 JO87GS > JO89HB 89.1 miles 2° 2018-10-11 05:29:33
SK3GA-2 2 2018-10-11 03:23:44 2018-10-11 03:24:31 JO77UM > JP82IA 311.8 miles 6° 2018-10-11 03:24:31
SM5RVH-1 11 2018-10-11 03:58:50 2018-10-11 07:05:54 JO77UM > JO88LQ 93.5 miles 30° 2018-10-11 07:05:54
LD2RK 1 2018-10-11 07:05:56 2018-10-11 07:05:56 JO77UM > JP50PF 243.0 miles 321° 2018-10-11 07:05:56
SM5RVH-2 18 2018-10-11 03:14:44 2018-10-11 07:06:48 JO77UM > JO88MS 97.7 miles 30° 2018-10-11 07:06:48
SM7SJR-2 8 2018-10-11 03:16:41 2018-10-11 04:33:53 JO87HS > JO87FB 49.4 miles 187° 2018-10-11 04:31:41
SM4KEL-1 2 2018-10-11 07:01:02 2018-10-11 07:06:53 JO77VM > JO69SJ 151.4 miles 330° 2018-10-11 07:01:02
SK0BJ-10 4 2018-10-11 06:57:03 2018-10-11 07:06:47 JO77UM > JO89XF 142.0 miles 34° 2018-10-11 07:06:47
SM5OEM-1 8 2018-10-11 03:16:41 2018-10-11 07:01:32 JO77UM > JO88BQ 81.8 miles 10° 2018-10-11 07:01:32
SM5OEM-3 19 2018-10-11 03:14:42 2018-10-11 07:06:27 JO77UM > JO89RB 122.2 miles 31° 2018-10-11 07:06:27
SM0RGQ-10 20 2018-10-11 03:16:42 2018-10-15 09:56:51 JO77VM > JO78SN 72.8 miles 353° 2018-10-11 03:27:04
SK7DI-2 6 2018-10-11 07:04:33 2018-10-15 09:55:06 JO77UM > JO77XB 34.5 miles 162° 2018-10-11 07:05:52
SM1NVP-10 6 2018-10-11 03:23:39 2018-10-11 07:06:47 JO77UM > JO88XV 125.0 miles 40° 2018-10-11 07:06:47
SK4SQ-1 2 2018-10-11 03:23:50 2018-10-11 07:00:54 JO77VM > JP70MS 223.7 miles 354° 2018-10-11 07:00:54
SK0SX-2 9 2018-10-11 03:27:03 2018-10-11 07:06:47 JO77UM > JO89XJ 152.7 miles 32° 2018-10-11 07:06:47
LD2LK 1 2018-10-11 07:05:59 2018-10-11 07:05:59 JO77UM > JP51CA 307.5 miles 323° 2018-10-11 07:05:59
LD2GN 1 2018-10-11 03:16:44 2018-10-11 03:16:44 JO77UM > JP50QX 283.3 miles 329° 2018-10-11 03:16:44
SK5LF-2 12 2018-10-11 03:13:20 2018-10-11 07:06:49 JO77UM > JO78TJ 60.5 miles 357° 2018-10-11 07:02:20
SM0RGQ-11 9 2018-10-11 03:18:23 2018-10-15 09:56:15 JO77UM > JO78SN 72.8 miles 355° 2018-10-11 03:23:40
SM0SCB-2 15 2018-10-11 03:23:39 2018-10-11 07:06:26 JO77UM > JO99CD 144.5 miles 38° 2018-10-11 07:06:26

Only position packets which were originated by the station are shown here. The range statistics show some extra long hops, because some digipeaters do not correctly add themselves to the digipeater path. Please check the raw packets.
About this site
This page shows real-time information collected from the Automatic Position Reporting System Internet network (APRS-IS). APRS is used by amateur (ham) radio operators to transmit real-time position information, weather data, telemetry and messages over the radio. A vehicle equipped with a GPS receiver, a VHF transmitter or HF transceiver and a small computer device called a tracker transmits it's location, speed and course in a small data packet, which is then received by a nearby iGate receiving site which forwards the packet on the Internet. Systems connected to the Internet can send information on the APRS-IS without a radio transmitter, or collect and display information transmitted anywhere in the world.
FAQ · Blog · Discussion group · Linking to aprs.fi · AIS sites · Service status · Database statistics · Advertising on aprs.fi · Technical details · API · Change log · Planned changes · Credits and thanks · Terms Of Service · iPhone/iPad APRS